Latest Coastal Weather Observations for Hamilton Island

IDQ60701

Issued at 11:02 pm EST Monday 6 April 2020 (issued every 10 minutes, with the page automatically refreshed every 10 minutes)

About coastal observations | Map of coastal stations | Coastal observations for QLD | Marine services | Other Formats
Station Details ID: 033106 Name: HAMILTON ISLAND AIRPORT Lat: -20.37 Lon: 148.95 Height: 58.66 m
Data from the previous 72 hours. | See also: Recent months at Hamilton Island
Date/Time
EST
Wind Sea
Height
m
Swell Vis
km
Cloud Weather Temp
°C
Press
hPa
Rain since
9am
mm
Dir  Spd
kts
Gust
kts
Height
m
Period
s
Dir
06/11:00pm ESE 15 20 - - - - 10 Partly cloudy - 25.8 1013.5 0.0
06/10:30pm ESE 15 17 - - - - 10 Partly cloudy - 26.0 1013.5 0.0
06/10:00pm ESE 16 18 - - - - 10 Partly cloudy - 25.9 1013.7 0.0
06/09:30pm ESE 15 18 - - - - 10 Partly cloudy - 25.9 1013.6 0.0
06/09:00pm ESE 14 16 - - - - 10 Mostly clear - 25.9 1013.6 0.0
06/08:30pm ESE 15 17 - - - - 10 Partly cloudy - 25.9 1013.4 0.0
06/08:00pm ESE 14 17 - - - - 10 - - 25.7 1013.2 0.0
06/07:30pm SE 16 20 - - - - 10 Partly cloudy - 25.6 1012.9 0.0
06/07:00pm ESE 15 19 - - - - 10 Partly cloudy - 25.6 1012.6 0.0
06/06:30pm ESE 17 20 - - - - 10 Partly cloudy - 25.9 1012.4 0.0
06/06:00pm ESE 16 19 - - - - 10 Mostly cloudy - 25.9 1012.2 0.0
06/05:48pm ESE 17 21 - - - - 10 Partly cloudy - 25.9 1012.1 0.0
06/05:33pm ESE 17 19 - - - - 10 Partly cloudy - 26.2 1011.9 0.0
06/05:30pm ESE 17 19 - - - - 10 Partly cloudy - 26.3 1011.9 0.0
06/05:00pm ESE 17 21 - - - - 10 Partly cloudy - 26.4 1011.5 0.0
06/04:30pm ESE 16 19 - - - - 10 Partly cloudy - 26.4 1011.3 0.0
06/04:00pm ESE 18 21 - - - - 10 Partly cloudy - 26.5 1011.2 0.0
06/03:30pm ESE 18 21 - - - - 10 Partly cloudy - 27.1 1011.2 0.0
06/03:00pm ESE 18 20 - - - - 10 - - 27.2 1011.2 0.0
06/02:30pm ESE 17 20 - - - - 10 - - 27.5 1011.3 0.0
06/02:00pm ESE 14 17 - - - - 10 - - 27.7 1011.6 0.0
06/01:30pm SE 15 17 - - - - 10 Partly cloudy - 27.8 1012.0 0.0
06/01:00pm SSE 16 18 - - - - 10 Partly cloudy - 27.8 1012.6 0.0
06/12:30pm SSE 16 18 - - - - 10 - - 27.2 1013.1 0.0
06/12:00pm SSE 18 20 - - - - 10 Mostly clear - 27.1 1013.5 0.0
06/11:30am SSE 17 20 - - - - 10 Partly cloudy - 27.2 1014.0 0.0
06/11:00am SSE 18 20 - - - - 10 Partly cloudy - 27.3 1014.3 0.0
06/10:55am SSE 18 21 - - - - 10 Partly cloudy - 26.8 1014.3 0.0
06/10:43am SSE 18 22 - - - - 10 Partly cloudy - 27.3 1014.4 0.0
06/10:41am SSE 18 21 - - - - 10 Partly cloudy - 27.5 1014.4 0.0
06/10:30am SSE 18 21 - - - - 10 Partly cloudy - 27.4 1014.6 0.0
06/10:28am SSE 18 21 - - - - 10 Partly cloudy - 27.3 1014.6 0.0
06/10:23am SSE 17 21 - - - - 10 Partly cloudy - 27.4 1014.6 0.0
06/10:11am SSE 16 20 - - - - 10 Partly cloudy - 27.3 1014.6 0.0
06/10:00am SSE 15 19 - - - - 10 Partly cloudy - 26.4 1014.6 0.0
06/09:30am SSE 15 19 - - - - 10 Partly cloudy - 27.2 1014.6 0.0
06/09:00am SSE 13 16 - - - - 10 Partly cloudy - 27.1 1014.5 0.0
06/08:30am SSE 11 13 - - - - 10 Partly cloudy - 27.5 1014.3 0.0
06/08:00am SE 10 12 - - - - 10 - - 27.2 1014.0 0.0
06/07:30am SE 11 13 - - - - 10 - - 26.9 1013.8 0.0
06/07:00am SE 11 12 - - - - 10 Partly cloudy - 26.0 1013.5 0.0
06/06:30am SE 11 13 - - - - 10 Partly cloudy - 25.6 1013.2 0.0
06/06:00am SE 11 13 - - - - 10 - - 25.6 1013.0 0.0
06/05:30am ESE 12 14 - - - - 10 Partly cloudy - 25.7 1012.5 0.0
06/05:23am ESE 13 15 - - - - 10 Partly cloudy - 25.8 1012.5 0.0
06/05:00am SE 12 14 - - - - 10 Partly cloudy - 25.7 1012.2 0.0
06/04:45am SE 11 13 - - - - 10 Partly cloudy - 25.9 1012.1 0.0
06/04:30am ESE 11 12 - - - - 10 Partly cloudy - 25.8 1011.9 0.0
06/04:00am ESE 11 14 - - - - 10 - - 25.9 1011.7 0.0
06/03:30am ESE 11 13 - - - - 10 Partly cloudy - 26.0 1011.6 0.0
06/03:00am ESE 11 13 - - - - 10 Cloudy - 25.9 1011.7 0.0
06/02:30am ESE 11 13 - - - - 10 Partly cloudy - 26.1 1011.7 0.0
06/02:00am ESE 13 16 - - - - 10 Partly cloudy - 26.1 1011.8 0.0
06/01:42am ESE 15 17 - - - - 10 Partly cloudy - 26.1 1011.9 0.0
06/01:30am ESE 16 20 - - - - 10 Partly cloudy - 26.2 1011.8 0.0
06/01:18am ESE 15 17 - - - - 10 Partly cloudy - 26.3 1011.9 0.0
06/01:00am ESE 15 18 - - - - 10 Partly cloudy - 26.3 1012.0 0.0
06/12:33am ESE 15 17 - - - - 10 Partly cloudy - 26.3 1012.1 0.0
06/12:30am ESE 15 17 - - - - 10 Partly cloudy - 26.3 1012.2 0.0
06/12:18am ESE 13 15 - - - - 10 Partly cloudy - 26.2 1012.4 0.0
06/12:00am ESE 13 15 - - - - 10 Partly cloudy - 26.2 1012.5 0.0
 
Date/Time
EST
Wind Sea
Height
m
Swell Vis
km
Cloud Weather Temp
°C
Press
hPa
Rain since
9am
mm
Dir  Spd
kts
Gust
kts
Height
m
Period
s
Dir
05/11:30pm ESE 13 16 - - - - 10 Partly cloudy - 26.4 1012.6 0.0
05/11:15pm ESE 13 15 - - - - 10 Partly cloudy - 26.4 1012.9 0.0
05/11:00pm ESE 12 15 - - - - 10 Partly cloudy - 26.6 1012.9 0.0
05/10:36pm SE 10 12 - - - - 10 Partly cloudy - 26.4 1013.2 0.0
05/10:30pm SE 10 11 - - - - 10 Partly cloudy - 26.3 1013.3 0.0
05/10:16pm SE 9 11 - - - - 10 Partly cloudy - 26.1 1013.3 0.0
05/10:01pm SE 8 11 - - - - 10 Partly cloudy - 26.3 1013.4 0.0
05/10:00pm SE 8 11 - - - - 10 Partly cloudy - 26.3 1013.4 0.0
05/09:30pm ESE 11 14 - - - - 10 Partly cloudy - 26.5 1013.3 0.0
05/09:13pm ESE 9 12 - - - - 10 Partly cloudy - 26.4 1013.3 0.0
05/09:00pm ESE 10 13 - - - - 10 Cloudy - 26.6 1013.2 0.0
05/08:30pm ESE 9 11 - - - - 10 Partly cloudy - 26.5 1013.0 0.0
05/08:16pm ESE 10 11 - - - - 10 Partly cloudy - 26.4 1012.8 0.0
05/08:00pm ESE 11 13 - - - - 10 Partly cloudy - 26.4 1012.6 0.0
05/07:30pm ESE 11 13 - - - - 10 Partly cloudy - 26.6 1012.3 0.0
05/07:00pm ESE 13 16 - - - - 10 Partly cloudy - 26.5 1011.8 0.0
05/06:30pm ESE 13 15 - - - - 10 Partly cloudy - 26.5 1011.6 0.0
05/06:00pm ESE 14 16 - - - - 10 Mostly clear - 26.6 1011.1 0.0
05/05:30pm ESE 13 16 - - - - 10 - - 26.9 1010.7 0.0
05/05:00pm E 12 15 - - - - 10 - - 27.2 1010.7 0.0
05/04:30pm E 12 14 - - - - 10 - - 27.4 1010.4 0.0
05/04:00pm E 13 16 - - - - 10 - - 27.5 1010.3 0.0
05/03:30pm E 12 15 - - - - 10 - - 28.0 1010.0 0.0
05/03:00pm E 13 16 - - - - 10 - - 27.7 1010.0 0.0
05/02:30pm E 12 14 - - - - 10 - - 28.1 1010.2 0.0
05/02:00pm E 11 14 - - - - 10 - - 28.3 1010.6 0.0
05/01:30pm ESE 8 9 - - - - 10 - - 28.5 1010.8 0.0
05/01:00pm SE 7 8 - - - - 10 - - 28.5 1011.1 0.0
05/12:30pm SE 8 9 - - - - 10 - - 28.5 1011.6 0.0
05/12:00pm ESE 7 9 - - - - 10 - - 28.4 1012.0 0.0
05/11:30am SE 7 8 - - - - 10 - - 27.9 1012.3 0.0
05/11:00am ESE 7 8 - - - - 10 - - 28.2 1012.5 0.0
05/10:30am ESE 6 7 - - - - 10 - - 28.0 1012.6 0.0
05/10:00am SSE 7 8 - - - - 10 - - 28.1 1012.8 0.0
05/09:30am SW 5 7 - - - - 10 - - 27.1 1012.8 0.0
05/09:00am SW 4 6 - - - - 10 - - 27.1 1012.7 0.0
05/08:30am SW 7 8 - - - - 10 Partly cloudy - 26.3 1012.6 0.0
05/08:00am SW 4 6 - - - - 10 Partly cloudy - 25.8 1012.3 0.0
05/07:30am WSW 4 5 - - - - 10 - - 25.6 1012.1 0.0
05/07:00am WNW 2 3 - - - - 10 - - 25.3 1011.6 0.0
05/06:30am W 4 5 - - - - 10 Partly cloudy - 24.6 1011.2 0.0
05/06:00am WNW 4 5 - - - - 10 - - 24.5 1010.9 0.0
05/05:30am NNW 4 5 - - - - 10 Partly cloudy - 24.4 1010.4 0.0
05/05:00am NNW 6 6 - - - - 10 Partly cloudy - 24.3 1010.2 0.0
05/04:30am NW 3 4 - - - - 10 - - 24.4 1010.0 0.0
05/04:00am WNW 3 5 - - - - 10 - - 24.6 1010.0 0.0
05/03:30am N 4 5 - - - - 10 - - 25.1 1009.8 0.0
05/03:00am NNW 3 4 - - - - 10 - - 24.9 1010.0 0.0
05/02:30am NNW 5 5 - - - - 10 - - 24.6 1010.1 0.0
05/02:00am NW 3 5 - - - - 10 - - 24.7 1010.3 0.0
05/01:30am NW 4 5 - - - - 10 - - 24.7 1010.5 0.0
05/01:00am NW 4 4 - - - - 10 - - 24.8 1010.7 0.0
05/12:30am NNW 4 5 - - - - 10 - - 24.7 1011.0 0.0
05/12:00am NW 4 5 - - - - 10 - - 24.8 1011.3 0.0
 
Date/Time
EST
Wind Sea
Height
m
Swell Vis
km
Cloud Weather Temp
°C
Press
hPa
Rain since
9am
mm
Dir  Spd
kts
Gust
kts
Height
m
Period
s
Dir
04/11:30pm NW 3 4 - - - - 10 - - 25.1 1011.4 0.0
04/11:00pm WNW 3 3 - - - - 10 - - 25.3 1011.4 0.0
04/10:30pm NW 3 4 - - - - 10 - - 25.3 1011.4 0.0
04/10:00pm NW 4 5 - - - - 10 - - 25.4 1011.3 0.0
04/09:30pm NW 3 4 - - - - 10 - - 25.5 1011.2 0.0
04/09:00pm NNE 3 4 - - - - 10 - - 25.6 1011.1 0.0
04/08:30pm NNW 4 4 - - - - 10 - - 25.4 1010.8 0.0
04/08:00pm NNW 4 5 - - - - 10 - - 25.6 1010.5 0.0
04/07:30pm NNE 5 7 - - - - 10 - - 26.0 1010.1 0.0
04/07:00pm NNE 6 7 - - - - 10 - - 26.1 1009.7 0.0
04/06:30pm NE 7 9 - - - - 10 - - 26.2 1009.1 0.0
04/06:00pm NE 7 9 - - - - 10 - - 26.5 1008.8 0.0
04/05:30pm NE 9 11 - - - - 10 - - 27.1 1008.4 0.0
04/05:00pm NE 8 11 - - - - 10 - - 27.2 1008.2 0.0
04/04:30pm ENE 12 15 - - - - 10 - - 27.2 1007.8 0.0
04/04:00pm E 11 13 - - - - 10 - - 27.5 1007.8 0.0
04/03:30pm E 11 14 - - - - 10 Partly cloudy - 27.3 1007.6 0.0
04/03:00pm E 11 12 - - - - 10 Mostly clear - 27.6 1007.6 0.0
04/02:30pm ESE 9 11 - - - - 10 - - 27.6 1008.0 0.0
04/02:00pm ESE 7 9 - - - - 10 Partly cloudy - 27.7 1008.3 0.0
04/01:30pm ESE 6 7 - - - - 10 - - 27.9 1008.7 0.0
04/01:00pm SE 6 7 - - - - 10 - - 27.6 1009.2 0.0
04/12:30pm S 5 6 - - - - 10 - - 27.8 1009.6 0.0
04/12:00pm SE 6 7 - - - - 10 Mostly clear - 27.2 1009.7 0.0
04/11:30am SE 5 8 - - - - 10 - - 27.5 1010.1 0.0
04/11:00am SE 6 7 - - - - 10 Partly cloudy - 27.6 1010.7 0.0
04/10:30am SSE 5 7 - - - - 10 Partly cloudy - 27.9 1011.0 0.0
04/10:00am SSW 5 7 - - - - 10 Partly cloudy - 27.4 1011.3 0.0
04/09:30am SW 6 7 - - - - 10 Partly cloudy - 26.4 1011.3 0.0
04/09:00am SSW 5 7 - - - - 10 Partly cloudy - 26.1 1011.5 1.4
04/08:30am WSW 4 5 - - - - 10 Partly cloudy - 26.3 1011.3 1.4
04/08:00am SW 3 4 - - - - 10 - - 25.6 1011.0 1.4
04/07:30am WSW 3 5 - - - - 10 - - 24.8 1010.7 1.4
04/07:00am WSW 6 8 - - - - 10 Partly cloudy - 24.2 1010.5 1.4
04/06:30am WSW 5 7 - - - - 10 Partly cloudy - 24.0 1010.4 1.4
04/06:00am WSW 4 7 - - - - 10 - - 23.9 1010.1 1.4
04/05:30am CALM 0 3 - - - - 10 - - 23.9 1009.6 1.4
04/05:00am NW 4 4 - - - - 10 - - 23.9 1009.4 1.4
04/04:30am NW 1 4 - - - - 10 - - 24.0 1009.3 1.4
04/04:00am CALM 0 0 - - - - 10 Partly cloudy - 24.1 1009.2 1.4
04/03:30am NNW 3 4 - - - - 10 Partly cloudy - 24.0 1009.2 1.4
04/03:00am NW 2 3 - - - - 10 Partly cloudy - 24.1 1009.6 1.4
04/02:30am NNW 4 4 - - - - 10 Partly cloudy - 24.0 1009.7 1.4
04/02:00am CALM 0 3 - - - - 10 - - 24.4 1009.8 1.4
04/01:30am NNW 3 4 - - - - 10 Partly cloudy - 24.3 1010.0 1.4
04/01:00am NE 6 8 - - - - 10 - - 24.9 1010.2 1.4
04/12:30am ENE 7 10 - - - - 10 - - 25.1 1010.3 1.4
04/12:00am E 8 10 - - - - 10 Mostly clear - 25.3 1010.4 1.4
 
Date/Time
EST
Wind Sea
Height
m
Swell Vis
km
Cloud Weather Temp
°C
Press
hPa
Rain since
9am
mm
Dir  Spd
kts
Gust
kts
Height
m
Period
s
Dir
03/11:30pm E 10 12 - - - - 10 Partly cloudy - 25.5 1010.4 1.4

Other formats

Comma delimited format used in spreadsheet applications
http://www.bom.gov.au/fwo/IDQ60701/IDQ60701.94368.axf

JavaScript Object Notation format (JSON) in row-major order
http://www.bom.gov.au/fwo/IDQ60701/IDQ60701.94368.json

Data quality

Most of these data are generated automatically and are frequently updated. Quality checks on data are not normally performed. It is possible for incorrect values to appear. Refer to information at About Latest Weather Observations and please check the disclaimer before using these data.